createdAt,value
2023-08-20T00:00:49.788Z,10.2
2023-08-20T00:02:49.846Z,10.2
2023-08-20T00:04:50.093Z,11.0
2023-08-20T00:06:50.230Z,12.1
2023-08-20T00:08:49.400Z,10.4
2023-08-20T00:10:49.477Z,10.4
2023-08-20T00:12:49.536Z,11.8
2023-08-20T00:14:49.510Z,11.8
2023-08-20T00:16:49.534Z,11.3
2023-08-20T00:18:49.548Z,12.2
2023-08-20T00:20:49.696Z,10.4
2023-08-20T00:22:49.847Z,12.2
2023-08-20T00:24:49.929Z,12.2
2023-08-20T00:26:50.335Z,10.9
2023-08-20T00:28:49.750Z,11.9
2023-08-20T00:30:49.866Z,10.9
2023-08-20T00:32:49.937Z,10.9
2023-08-20T00:34:50.109Z,9.6
2023-08-20T00:36:49.593Z,9.2
2023-08-20T00:38:49.714Z,10.0
2023-08-20T00:40:49.825Z,11.9
2023-08-20T00:42:49.950Z,11.9
2023-08-20T00:44:50.233Z,10.3
2023-08-20T00:46:50.298Z,10.1
2023-08-20T00:48:49.693Z,12.0
2023-08-20T00:50:49.734Z,12.3
2023-08-20T00:52:49.764Z,12.3
2023-08-20T00:54:50.032Z,9.0
2023-08-20T00:56:50.185Z,11.8
2023-08-20T00:58:49.377Z,9.5
2023-08-20T01:00:49.403Z,10.5
2023-08-20T01:02:49.604Z,10.5
2023-08-20T01:04:49.735Z,10.8
2023-08-20T01:06:49.940Z,11.7
2023-08-20T01:08:49.989Z,12.0
2023-08-20T01:10:50.184Z,10.5
2023-08-20T01:12:49.452Z,10.5
2023-08-20T01:14:49.527Z,10.5
2023-08-20T01:16:49.677Z,11.0
2023-08-20T01:18:49.765Z,9.8
2023-08-20T01:20:50.030Z,9.8
2023-08-20T01:22:50.272Z,12.7
2023-08-20T01:24:49.375Z,10.8
2023-08-20T01:26:49.532Z,12.9
2023-08-20T01:28:49.537Z,10.0
2023-08-20T01:30:49.609Z,10.0
2023-08-20T01:32:49.697Z,11.6
2023-08-20T01:34:49.883Z,11.3
2023-08-20T01:36:49.828Z,10.6
2023-08-20T01:38:50.131Z,12.3
2023-08-20T01:40:50.310Z,12.3
2023-08-20T01:42:49.427Z,11.6
2023-08-20T01:44:49.637Z,11.4
2023-08-20T01:46:49.780Z,11.7
2023-08-20T01:48:49.934Z,11.7
2023-08-20T01:50:50.071Z,9.4
2023-08-20T01:52:50.217Z,9.8
2023-08-20T01:54:49.462Z,9.3
2023-08-20T01:56:49.855Z,11.8
2023-08-20T01:58:49.987Z,11.8
2023-08-20T02:00:50.210Z,13.3
2023-08-20T02:02:49.538Z,12.2
2023-08-20T02:04:49.870Z,11.1
2023-08-20T02:06:49.955Z,11.1
2023-08-20T02:08:50.050Z,11.6
2023-08-20T02:10:50.257Z,11.6
2023-08-20T02:12:49.442Z,10.4
2023-08-20T02:14:49.575Z,10.6
2023-08-20T02:16:49.787Z,10.6
2023-08-20T02:18:49.964Z,10.6
2023-08-20T02:20:50.208Z,10.9
2023-08-20T02:22:49.579Z,14.9
2023-08-20T02:24:49.706Z,12.1
2023-08-20T02:26:49.799Z,12.1
2023-08-20T02:28:49.885Z,13.6
2023-08-20T02:30:50.023Z,13.8
2023-08-20T02:32:49.537Z,12.3
2023-08-20T02:34:49.766Z,12.3
2023-08-20T02:36:49.902Z,13.8
2023-08-20T02:38:49.989Z,11.4
2023-08-20T02:40:49.330Z,11.1
2023-08-20T02:42:50.324Z,10.3
2023-08-20T02:44:49.460Z,10.3
2023-08-20T02:46:49.572Z,12.4
2023-08-20T02:48:49.779Z,11.6
2023-08-20T02:50:49.896Z,11.1
2023-08-20T02:52:50.029Z,10.8
2023-08-20T02:54:50.098Z,10.8
2023-08-20T02:56:50.194Z,11.0
2023-08-20T02:58:50.368Z,11.0
2023-08-20T03:00:49.375Z,9.4
2023-08-20T03:02:49.524Z,13.1
2023-08-20T03:04:49.649Z,10.6
2023-08-20T03:06:49.946Z,10.6
2023-08-20T03:08:50.093Z,12.0
2023-08-20T03:10:50.221Z,11.4
2023-08-20T03:12:49.410Z,11.4
2023-08-20T03:14:49.545Z,11.8
2023-08-20T03:16:49.612Z,11.8
2023-08-20T03:18:49.816Z,11.4
2023-08-20T03:20:49.933Z,10.6
2023-08-20T03:22:49.929Z,12.4
2023-08-20T03:24:50.294Z,12.4
2023-08-20T03:26:49.447Z,11.7
2023-08-20T03:28:49.543Z,9.5
2023-08-20T03:30:49.664Z,9.9
2023-08-20T03:32:50.038Z,9.9
2023-08-20T03:34:50.172Z,12.1
2023-08-20T03:36:50.221Z,12.1
2023-08-20T03:38:50.331Z,12.4
2023-08-20T03:40:49.421Z,11.4
2023-08-20T03:42:49.549Z,11.4
2023-08-20T03:44:49.682Z,11.0
2023-08-20T03:46:49.768Z,11.0
2023-08-20T03:48:50.052Z,11.3
2023-08-20T03:50:49.566Z,11.3
2023-08-20T03:52:49.614Z,13.1
2023-08-20T03:54:49.661Z,10.3
2023-08-20T03:56:49.715Z,10.3
2023-08-20T03:58:49.948Z,12.2
2023-08-20T04:00:50.029Z,11.5
2023-08-20T04:02:50.301Z,11.5
2023-08-20T04:04:49.478Z,12.4
2023-08-20T04:06:49.678Z,14.4
2023-08-20T04:08:50.064Z,11.5
2023-08-20T04:10:50.062Z,11.5
2023-08-20T04:12:50.158Z,12.4
2023-08-20T04:14:50.311Z,12.4
2023-08-20T04:16:49.660Z,14.2
2023-08-20T04:18:49.762Z,13.1
2023-08-20T04:20:49.857Z,13.7
2023-08-20T04:22:50.072Z,13.7
2023-08-20T04:24:50.212Z,11.3
2023-08-20T04:26:50.316Z,11.8
2023-08-20T04:28:49.515Z,11.8
2023-08-20T04:30:49.709Z,10.9
2023-08-20T04:32:49.918Z,10.9
2023-08-20T04:34:50.352Z,12.1
2023-08-20T04:36:49.574Z,13.9
2023-08-20T04:38:49.624Z,13.1
2023-08-20T04:40:49.752Z,13.1
2023-08-20T04:42:49.866Z,13.2
2023-08-20T04:44:49.958Z,13.5
2023-08-20T04:46:50.236Z,13.2
2023-08-20T04:48:50.258Z,11.5
2023-08-20T04:50:49.351Z,14.0
2023-08-20T04:52:49.777Z,14.0
2023-08-20T04:54:49.931Z,14.2
2023-08-20T04:56:50.003Z,15.2
2023-08-20T04:58:50.131Z,12.4
2023-08-20T05:00:49.532Z,12.1
2023-08-20T05:02:49.834Z,12.1
2023-08-20T05:04:49.978Z,11.5
2023-08-20T05:06:50.156Z,11.5
2023-08-20T05:08:50.293Z,12.1
2023-08-20T05:10:50.308Z,13.3
2023-08-20T05:12:49.398Z,13.3
2023-08-20T05:14:49.525Z,11.6
2023-08-20T05:16:49.652Z,11.8
2023-08-20T05:18:50.026Z,12.1
2023-08-20T05:20:50.064Z,12.1
2023-08-20T05:22:50.178Z,11.4
2023-08-20T05:24:49.380Z,11.4
2023-08-20T05:26:49.525Z,11.4
2023-08-20T05:28:49.558Z,12.3
2023-08-20T05:30:49.804Z,12.3
2023-08-20T05:32:50.010Z,12.3
2023-08-20T05:34:50.252Z,11.8
2023-08-20T05:36:49.554Z,12.3
2023-08-20T05:38:49.625Z,12.3
2023-08-20T05:40:49.700Z,9.6
2023-08-20T05:42:52.034Z,11.6
2023-08-20T05:44:49.839Z,11.3
2023-08-20T05:46:50.023Z,10.2
2023-08-20T05:48:49.954Z,11.4
2023-08-20T05:50:50.037Z,11.4
2023-08-20T05:52:50.122Z,11.2
2023-08-20T05:54:49.365Z,10.8
2023-08-20T05:56:49.375Z,10.8
2023-08-20T05:58:49.551Z,9.4
2023-08-20T06:00:49.630Z,9.4
2023-08-20T06:02:49.940Z,10.0
2023-08-20T06:04:50.233Z,12.3
2023-08-20T06:06:50.299Z,12.3
2023-08-20T06:09:02.874Z,11.2
2023-08-20T06:10:49.361Z,11.8
2023-08-20T06:12:49.528Z,11.8
2023-08-20T06:14:49.643Z,11.3
2023-08-20T06:16:49.870Z,11.3
2023-08-20T06:18:50.752Z,11.9
2023-08-20T06:20:49.704Z,13.3
2023-08-20T06:22:49.904Z,11.6
2023-08-20T06:24:49.845Z,10.8
2023-08-20T06:26:49.960Z,11.6
2023-08-20T06:28:50.187Z,11.6
2023-08-20T06:30:49.358Z,11.8
2023-08-20T06:32:49.479Z,10.1
2023-08-20T06:34:49.713Z,11.0
2023-08-20T06:36:49.826Z,11.0
2023-08-20T06:38:49.984Z,12.8
2023-08-20T06:40:50.131Z,11.3
2023-08-20T06:42:50.214Z,12.6
2023-08-20T06:44:50.315Z,12.5
2023-08-20T06:46:49.741Z,12.5
2023-08-20T06:48:50.000Z,14.2
2023-08-20T06:50:50.256Z,14.9
2023-08-20T06:52:50.229Z,14.1
2023-08-20T06:54:50.278Z,12.9
2023-08-20T06:56:51.024Z,14.5
2023-08-20T06:58:50.136Z,14.5
2023-08-20T07:00:49.351Z,14.9
2023-08-20T07:02:49.534Z,15.6
2023-08-20T07:04:49.990Z,15.6
2023-08-20T07:06:50.139Z,17.2
2023-08-20T07:08:49.369Z,16.2
2023-08-20T07:10:49.577Z,17.2
2023-08-20T07:12:49.743Z,13.9
2023-08-20T07:14:49.760Z,13.9
2023-08-20T07:16:49.898Z,15.7
2023-08-20T07:18:49.970Z,14.3
2023-08-20T07:20:50.166Z,13.4
2023-08-20T07:22:50.335Z,13.1
2023-08-20T07:24:49.437Z,13.1
2023-08-20T07:26:49.508Z,13.0
2023-08-20T07:28:49.686Z,14.7
2023-08-20T07:30:49.693Z,12.9
2023-08-20T07:32:49.871Z,15.9
2023-08-20T07:34:50.104Z,15.9
2023-08-20T07:36:50.254Z,13.6
2023-08-20T07:38:49.342Z,12.5
2023-08-20T07:40:49.520Z,13.6
2023-08-20T07:42:49.620Z,13.3
2023-08-20T07:44:49.761Z,13.3
2023-08-20T07:46:49.825Z,11.1
2023-08-20T07:48:49.886Z,13.3
2023-08-20T07:50:49.853Z,13.5
2023-08-20T07:52:50.013Z,13.3
2023-08-20T07:54:50.120Z,12.5
2023-08-20T07:56:50.168Z,12.5
2023-08-20T07:58:50.287Z,10.0
2023-08-20T08:00:49.552Z,12.5
2023-08-20T08:02:49.753Z,9.6
2023-08-20T08:04:49.975Z,9.6
2023-08-20T08:06:50.186Z,12.4
2023-08-20T08:08:50.177Z,10.7
2023-08-20T08:10:49.362Z,10.7
2023-08-20T08:12:50.310Z,10.1
2023-08-20T08:14:49.432Z,11.0
2023-08-20T08:16:49.574Z,10.4
2023-08-20T08:18:49.682Z,11.9
2023-08-20T08:20:49.645Z,11.9
2023-08-20T08:22:49.609Z,10.4
2023-08-20T08:24:49.727Z,11.0
2023-08-20T08:26:49.983Z,10.6
2023-08-20T08:28:50.091Z,14.0
2023-08-20T08:30:50.250Z,14.0
2023-08-20T08:32:49.572Z,10.0
2023-08-20T08:34:49.796Z,10.0
2023-08-20T08:36:49.895Z,11.0
2023-08-20T08:38:49.948Z,11.6
2023-08-20T08:40:49.957Z,11.6
2023-08-20T08:42:50.011Z,11.1
2023-08-20T08:44:50.100Z,11.1
2023-08-20T08:46:50.272Z,12.5
2023-08-20T08:48:49.492Z,12.5
2023-08-20T08:50:49.673Z,10.5
2023-08-20T08:52:49.755Z,11.8
2023-08-20T08:54:49.858Z,11.9
2023-08-20T08:56:50.056Z,11.8
2023-08-20T08:58:50.157Z,12.8
2023-08-20T09:00:50.392Z,9.8
2023-08-20T09:02:49.457Z,9.8
2023-08-20T09:04:49.718Z,11.2
2023-08-20T09:06:49.755Z,10.7
2023-08-20T09:08:49.782Z,13.2
2023-08-20T09:10:49.819Z,12.3
2023-08-20T09:12:50.031Z,12.3
2023-08-20T09:14:50.278Z,10.9
2023-08-20T09:16:50.361Z,11.3
2023-08-20T09:18:49.398Z,12.0
2023-08-20T09:20:49.516Z,12.5
2023-08-20T09:22:49.489Z,12.5
2023-08-20T09:24:49.534Z,11.3
2023-08-20T09:26:49.586Z,11.3
2023-08-20T09:28:49.757Z,12.0
2023-08-20T09:30:49.874Z,12.0
2023-08-20T09:32:50.003Z,13.6
2023-08-20T09:34:49.328Z,12.7
2023-08-20T09:36:49.433Z,11.9
2023-08-20T09:38:50.910Z,11.5
2023-08-20T09:40:50.186Z,11.5
2023-08-20T09:42:49.383Z,10.9
2023-08-20T09:44:52.003Z,12.0
2023-08-20T09:46:50.289Z,11.1
2023-08-20T09:48:49.507Z,11.1
2023-08-20T09:50:49.694Z,11.8
2023-08-20T09:52:49.959Z,13.5
2023-08-20T09:54:50.010Z,13.5
2023-08-20T09:56:50.200Z,12.7
2023-08-20T09:58:50.306Z,12.7
2023-08-20T10:00:49.532Z,12.2
2023-08-20T10:02:49.777Z,12.4
2023-08-20T10:04:49.969Z,11.2
2023-08-20T10:06:49.982Z,11.2
2023-08-20T10:08:50.110Z,9.3
2023-08-20T10:10:50.202Z,9.3
2023-08-20T10:12:49.461Z,11.2
2023-08-20T10:14:49.675Z,10.9
2023-08-20T10:16:49.826Z,10.9
2023-08-20T10:18:49.938Z,11.0
2023-08-20T10:20:49.983Z,11.3
2023-08-20T10:22:50.188Z,12.4
2023-08-20T10:24:49.376Z,9.7
2023-08-20T10:26:49.418Z,9.7
2023-08-20T10:28:49.603Z,8.9
2023-08-20T10:30:49.599Z,8.9
2023-08-20T10:32:49.733Z,10.6
2023-08-20T10:34:50.026Z,8.5
2023-08-20T10:36:50.177Z,8.5
2023-08-20T10:38:50.278Z,10.2
2023-08-20T10:40:49.522Z,10.2
2023-08-20T10:42:49.705Z,11.5
2023-08-20T10:44:49.863Z,8.9
2023-08-20T10:46:49.990Z,7.6
2023-08-20T10:48:50.181Z,7.6
2023-08-20T10:50:50.270Z,9.2
2023-08-20T10:52:49.398Z,10.0
2023-08-20T10:54:49.446Z,9.1
2023-08-20T10:56:49.592Z,9.1
2023-08-20T10:58:49.580Z,9.1
2023-08-20T11:00:49.650Z,7.8
2023-08-20T11:02:49.870Z,9.3
2023-08-20T11:04:50.222Z,11.1
2023-08-20T11:06:50.310Z,11.1
2023-08-20T11:08:49.393Z,8.7
2023-08-20T11:10:49.496Z,8.7
2023-08-20T11:12:49.509Z,7.7
2023-08-20T11:14:49.700Z,7.7
2023-08-20T11:16:49.886Z,10.3
2023-08-20T11:18:50.038Z,9.1
2023-08-20T11:20:50.206Z,10.0
2023-08-20T11:22:50.203Z,9.4
2023-08-20T11:24:49.387Z,9.5
2023-08-20T11:26:49.741Z,9.5
2023-08-20T11:28:49.872Z,9.4
2023-08-20T11:30:49.909Z,9.1
2023-08-20T11:32:50.033Z,9.1
2023-08-20T11:34:50.280Z,10.2
2023-08-20T11:36:49.406Z,8.6
2023-08-20T11:38:49.591Z,9.0
2023-08-20T11:40:49.798Z,9.4
2023-08-20T11:42:49.905Z,7.3
2023-08-20T11:44:49.923Z,7.3
2023-08-20T11:46:50.144Z,10.3
2023-08-20T11:48:49.368Z,8.9
2023-08-20T11:50:49.366Z,8.0
2023-08-20T11:52:49.539Z,10.9
2023-08-20T11:54:49.526Z,10.9
2023-08-20T11:56:49.783Z,9.6
2023-08-20T11:58:49.846Z,9.5
2023-08-20T12:00:50.011Z,7.7
2023-08-20T12:02:50.216Z,7.7
2023-08-20T12:04:49.466Z,8.6
2023-08-20T12:06:49.827Z,9.8
2023-08-20T12:08:50.022Z,10.3
2023-08-20T12:10:50.149Z,9.7
2023-08-20T12:12:50.255Z,9.7
2023-08-20T12:14:50.381Z,9.4
2023-08-20T12:16:49.526Z,9.7
2023-08-20T12:18:49.651Z,7.9
2023-08-20T12:20:49.779Z,9.3
2023-08-20T12:22:49.846Z,9.3
2023-08-20T12:24:49.828Z,7.6
2023-08-20T12:26:49.865Z,9.5
2023-08-20T12:28:49.922Z,8.6
2023-08-20T12:30:49.977Z,8.6
2023-08-20T12:32:50.326Z,10.1
2023-08-20T12:34:49.502Z,9.5
2023-08-20T12:36:49.630Z,8.8
2023-08-20T12:38:49.742Z,8.9
2023-08-20T12:40:49.925Z,8.9
2023-08-20T12:42:50.081Z,8.2
2023-08-20T12:44:50.147Z,9.1
2023-08-20T12:46:49.474Z,10.2
2023-08-20T12:48:49.729Z,9.1
2023-08-20T12:50:49.905Z,9.1
2023-08-20T12:52:50.099Z,10.7
2023-08-20T12:54:49.365Z,10.7
2023-08-20T12:56:49.489Z,12.1
2023-08-20T12:58:49.788Z,8.4
2023-08-20T13:00:49.851Z,8.4
2023-08-20T13:02:50.133Z,10.6
2023-08-20T13:04:50.221Z,10.6
2023-08-20T13:06:49.417Z,9.6
2023-08-20T13:08:49.391Z,9.9
2023-08-20T13:10:49.543Z,9.9
2023-08-20T13:12:49.640Z,10.1
2023-08-20T13:14:49.680Z,9.2
2023-08-20T13:16:49.935Z,9.2
2023-08-20T13:18:50.189Z,10.7
2023-08-20T13:20:49.396Z,11.1
2023-08-20T13:22:49.556Z,8.7
2023-08-20T13:24:49.638Z,8.9
2023-08-20T13:26:49.732Z,9.6
2023-08-20T13:28:49.808Z,8.7
2023-08-20T13:30:49.973Z,10.0
2023-08-20T13:32:50.319Z,10.0
2023-08-20T13:34:49.523Z,9.7
2023-08-20T13:36:49.625Z,8.0
2023-08-20T13:38:49.910Z,8.0
2023-08-20T13:40:50.015Z,7.5
2023-08-20T13:42:50.257Z,7.5
2023-08-20T13:44:50.288Z,12.0
2023-08-20T13:46:49.666Z,11.6
2023-08-20T13:48:49.770Z,8.1
2023-08-20T13:50:49.788Z,8.1
2023-08-20T13:52:49.805Z,7.8
2023-08-20T13:54:49.932Z,7.8
2023-08-20T13:56:49.974Z,8.5
2023-08-20T13:58:49.998Z,8.5
2023-08-20T14:00:50.089Z,7.6
2023-08-20T14:02:50.227Z,7.9
2023-08-20T14:04:49.682Z,7.1
2023-08-20T14:06:49.856Z,9.3
2023-08-20T14:08:50.065Z,7.1
2023-08-20T14:10:50.095Z,7.1
2023-08-20T14:12:50.169Z,7.5
2023-08-20T14:14:50.318Z,8.3
2023-08-20T14:16:49.387Z,8.3
2023-08-20T14:18:49.564Z,9.0
2023-08-20T14:20:49.677Z,9.0
2023-08-20T14:22:49.880Z,9.0
2023-08-20T14:24:49.991Z,9.3
2023-08-20T14:26:50.191Z,6.4
2023-08-20T14:28:50.318Z,6.4
2023-08-20T14:30:49.739Z,10.4
2023-08-20T14:32:50.055Z,8.0
2023-08-20T14:34:50.267Z,8.4
2023-08-20T14:36:50.327Z,9.0
2023-08-20T14:38:49.416Z,9.0
2023-08-20T14:40:49.638Z,8.0
2023-08-20T14:42:49.688Z,6.9
2023-08-20T14:44:49.659Z,9.6
2023-08-20T14:46:49.664Z,8.4
2023-08-20T14:48:50.060Z,8.4
2023-08-20T14:50:50.020Z,8.8
2023-08-20T14:52:50.177Z,6.6
2023-08-20T14:54:50.255Z,7.8
2023-08-20T14:56:50.236Z,7.8
2023-08-20T14:58:50.187Z,7.2
2023-08-20T15:00:50.222Z,8.1
2023-08-20T15:02:49.624Z,8.5
2023-08-20T15:04:49.826Z,7.2
2023-08-20T15:06:49.793Z,7.2
2023-08-20T15:08:49.884Z,6.4
2023-08-20T15:10:50.002Z,6.3
2023-08-20T15:12:50.219Z,7.2
2023-08-20T15:14:49.330Z,7.2
2023-08-20T15:16:49.539Z,7.8
2023-08-20T15:18:49.686Z,7.8
2023-08-20T15:20:49.880Z,5.9
2023-08-20T15:22:50.112Z,7.3
2023-08-20T15:24:50.137Z,7.3
2023-08-20T15:26:50.254Z,6.0
2023-08-20T15:28:49.524Z,8.6
2023-08-20T15:30:49.563Z,7.9
2023-08-20T15:32:49.726Z,8.9
2023-08-20T15:34:50.059Z,8.9
2023-08-20T15:36:50.340Z,7.6
2023-08-20T15:38:50.269Z,7.7
2023-08-20T15:40:50.294Z,8.4
2023-08-20T15:42:49.512Z,9.5
2023-08-20T15:44:49.518Z,8.7
2023-08-20T15:46:49.566Z,8.7
2023-08-20T15:48:49.581Z,8.1
2023-08-20T15:50:49.664Z,8.7
2023-08-20T15:52:49.778Z,8.7
2023-08-20T15:54:49.887Z,8.5
2023-08-20T15:56:49.877Z,8.5
2023-08-20T15:58:50.058Z,6.6
2023-08-20T16:00:49.976Z,11.2
2023-08-20T16:02:50.208Z,8.3
2023-08-20T16:04:50.283Z,8.3
2023-08-20T16:06:49.395Z,9.0
2023-08-20T16:08:49.474Z,7.0
2023-08-20T16:10:49.555Z,8.2
2023-08-20T16:12:49.744Z,8.2
2023-08-20T16:14:50.006Z,9.8
2023-08-20T16:16:50.191Z,8.3
2023-08-20T16:18:49.362Z,8.8
2023-08-20T16:20:49.346Z,8.3
2023-08-20T16:22:49.461Z,8.3
2023-08-20T16:24:49.539Z,6.9
2023-08-20T16:26:49.695Z,6.8
2023-08-20T16:28:49.683Z,9.5
2023-08-20T16:30:49.712Z,7.1
2023-08-20T16:32:49.840Z,7.1
2023-08-20T16:34:50.216Z,9.7
2023-08-20T16:36:49.411Z,8.6
2023-08-20T16:38:49.387Z,10.7
2023-08-20T16:40:49.456Z,7.5
2023-08-20T16:42:49.508Z,9.1
2023-08-20T16:44:49.748Z,9.1
2023-08-20T16:46:49.929Z,9.1
2023-08-20T16:48:49.949Z,9.5
2023-08-20T16:50:50.005Z,9.2
2023-08-20T16:52:50.190Z,9.2
2023-08-20T16:54:49.460Z,9.3
2023-08-20T16:56:49.621Z,8.1
2023-08-20T16:58:49.662Z,8.5
2023-08-20T17:00:49.695Z,8.4
2023-08-20T17:02:49.776Z,8.4
2023-08-20T17:04:50.118Z,9.7
2023-08-20T17:06:50.314Z,10.0
2023-08-20T17:08:49.575Z,9.5
2023-08-20T17:10:49.576Z,9.5
2023-08-20T17:12:50.062Z,10.0
2023-08-20T17:14:49.621Z,7.3
2023-08-20T17:16:50.285Z,7.3
2023-08-20T17:18:50.264Z,8.8
2023-08-20T17:20:49.681Z,8.8
2023-08-20T17:22:49.721Z,8.6
2023-08-20T17:24:49.794Z,9.2
2023-08-20T17:26:50.040Z,8.8
2023-08-20T17:28:50.235Z,10.8
2023-08-20T17:30:49.503Z,10.8
2023-08-20T17:32:49.707Z,8.7
2023-08-20T17:34:49.895Z,8.7
2023-08-20T17:36:50.065Z,9.2
2023-08-20T17:38:50.346Z,10.7
2023-08-20T17:40:49.510Z,10.7
2023-08-20T17:42:49.550Z,8.0
2023-08-20T17:44:49.715Z,10.9
2023-08-20T17:46:50.034Z,10.9
2023-08-20T17:48:50.195Z,10.9
2023-08-20T17:50:50.322Z,8.6
2023-08-20T17:52:50.323Z,8.6
2023-08-20T17:54:49.414Z,8.9
2023-08-20T17:56:49.744Z,8.0
2023-08-20T17:58:49.912Z,9.8
2023-08-20T18:00:50.204Z,9.8
2023-08-20T18:02:50.355Z,8.5
2023-08-20T18:04:49.480Z,9.5
2023-08-20T18:06:49.611Z,9.8
2023-08-20T18:08:49.737Z,9.8
2023-08-20T18:10:49.797Z,8.4
2023-08-20T18:12:49.926Z,8.4
2023-08-20T18:14:50.188Z,8.2
2023-08-20T18:16:50.355Z,9.3
2023-08-20T18:18:49.425Z,9.2
2023-08-20T18:20:49.578Z,9.2
2023-08-20T18:22:49.899Z,8.6
2023-08-20T18:24:49.966Z,9.3
2023-08-20T18:26:49.907Z,10.1
2023-08-20T18:28:50.099Z,8.7
2023-08-20T18:30:50.217Z,8.7
2023-08-20T18:32:50.366Z,8.6
2023-08-20T18:34:49.428Z,8.7
2023-08-20T18:36:49.607Z,9.2
2023-08-20T18:38:49.652Z,9.2
2023-08-20T18:40:49.814Z,8.4
2023-08-20T18:42:50.044Z,9.9
2023-08-20T18:44:50.195Z,9.9
2023-08-20T18:46:50.321Z,9.1
2023-08-20T18:48:49.569Z,9.1
2023-08-20T18:50:49.644Z,8.0
2023-08-20T18:52:49.558Z,8.5
2023-08-20T18:54:49.639Z,10.9
2023-08-20T18:56:49.831Z,10.9
2023-08-20T18:58:50.081Z,10.9
2023-08-20T19:00:50.333Z,11.3
2023-08-20T19:02:49.614Z,10.7
2023-08-20T19:04:49.848Z,10.7
2023-08-20T19:06:50.202Z,9.8
2023-08-20T19:08:50.302Z,10.2
2023-08-20T19:10:49.350Z,9.0
2023-08-20T19:12:49.416Z,9.8
2023-08-20T19:14:49.638Z,9.8
2023-08-20T19:16:49.746Z,11.4
2023-08-20T19:18:49.799Z,12.6
2023-08-20T19:20:49.906Z,9.7
2023-08-20T19:22:49.940Z,8.1
2023-08-20T19:24:50.142Z,8.1
2023-08-20T19:26:50.229Z,8.8
2023-08-20T19:28:49.389Z,11.7
2023-08-20T19:30:49.465Z,12.1
2023-08-20T19:32:49.578Z,12.2
2023-08-20T19:34:49.793Z,12.2
2023-08-20T19:36:49.810Z,10.9
2023-08-20T19:38:49.913Z,9.5
2023-08-20T19:40:49.935Z,10.3
2023-08-20T19:42:50.281Z,10.2
2023-08-20T19:44:49.409Z,10.2
2023-08-20T19:46:49.606Z,9.9
2023-08-20T19:48:49.542Z,10.6
2023-08-20T19:50:49.830Z,11.2
2023-08-20T19:52:49.875Z,11.2
2023-08-20T19:54:49.906Z,12.1
2023-08-20T19:56:49.914Z,11.5
2023-08-20T19:58:49.991Z,10.7
2023-08-20T20:00:50.061Z,11.5
2023-08-20T20:02:50.173Z,11.5
2023-08-20T20:04:49.464Z,11.5
2023-08-20T20:06:49.659Z,11.7
2023-08-20T20:08:50.031Z,12.1
2023-08-20T20:10:50.260Z,11.7
2023-08-20T20:12:49.387Z,10.1
2023-08-20T20:14:49.504Z,10.1
2023-08-20T20:16:49.644Z,9.9
2023-08-20T20:18:49.739Z,11.4
2023-08-20T20:20:49.823Z,9.7
2023-08-20T20:22:49.910Z,10.8
2023-08-20T20:24:50.110Z,10.8
2023-08-20T20:26:49.542Z,12.9
2023-08-20T20:28:49.710Z,10.8
2023-08-20T20:30:49.853Z,10.2
2023-08-20T20:32:49.958Z,11.5
2023-08-20T20:34:50.332Z,11.5
2023-08-20T20:36:49.524Z,13.5
2023-08-20T20:38:49.665Z,11.0
2023-08-20T20:40:49.836Z,10.8
2023-08-20T20:42:49.917Z,10.6
2023-08-20T20:44:50.009Z,10.6
2023-08-20T20:46:50.233Z,11.8
2023-08-20T20:48:49.398Z,12.8
2023-08-20T20:50:49.544Z,12.8
2023-08-20T20:52:49.866Z,11.8
2023-08-20T20:54:50.060Z,11.9
2023-08-20T20:56:50.295Z,11.2
2023-08-20T20:58:51.273Z,11.9
2023-08-20T21:00:50.368Z,11.2
2023-08-20T21:02:49.602Z,11.2
2023-08-20T21:04:49.688Z,12.4
2023-08-20T21:06:49.942Z,11.2
2023-08-20T21:08:50.118Z,15.9
2023-08-20T21:10:49.425Z,15.9
2023-08-20T21:12:49.613Z,11.6
2023-08-20T21:14:49.816Z,11.6
2023-08-20T21:16:50.077Z,11.9
2023-08-20T21:18:50.298Z,12.1
2023-08-20T21:20:49.424Z,12.1
2023-08-20T21:22:49.482Z,13.3
2023-08-20T21:24:49.515Z,13.3
2023-08-20T21:26:49.693Z,11.9
2023-08-20T21:28:49.917Z,11.6
2023-08-20T21:30:50.252Z,11.6
2023-08-20T21:32:50.388Z,12.4
2023-08-20T21:34:49.586Z,12.2
2023-08-20T21:36:49.921Z,12.8
2023-08-20T21:38:50.171Z,13.7
2023-08-20T21:40:50.273Z,12.5
2023-08-20T21:42:49.342Z,12.5
2023-08-20T21:44:49.466Z,12.5
2023-08-20T21:46:49.685Z,10.8
2023-08-20T21:48:49.764Z,10.8
2023-08-20T21:50:49.960Z,15.7
2023-08-20T21:52:50.126Z,12.8
2023-08-20T21:54:50.313Z,12.7
2023-08-20T21:56:49.404Z,13.6
2023-08-20T21:58:49.628Z,13.6
2023-08-20T22:00:49.774Z,14.2
2023-08-20T22:02:51.553Z,14.1
2023-08-20T22:04:50.270Z,13.6
2023-08-20T22:06:49.341Z,13.9
2023-08-20T22:08:49.626Z,13.9
2023-08-20T22:10:49.764Z,14.2
2023-08-20T22:12:49.980Z,14.2
2023-08-20T22:14:50.053Z,16.5
2023-08-20T22:17:04.227Z,11.8
2023-08-20T22:18:50.259Z,11.8
2023-08-20T22:20:49.538Z,11.9
2023-08-20T22:22:49.546Z,11.7
2023-08-20T22:24:49.673Z,12.9
2023-08-20T22:26:49.720Z,14.4
2023-08-20T22:28:49.825Z,14.4
2023-08-20T22:30:49.917Z,13.9
2023-08-20T22:32:50.097Z,11.0
2023-08-20T22:34:50.306Z,11.0
2023-08-20T22:36:49.570Z,14.0
2023-08-20T22:38:49.751Z,14.0
2023-08-20T22:40:49.963Z,12.7
2023-08-20T22:42:50.042Z,13.6
2023-08-20T22:44:50.149Z,12.1
2023-08-20T22:46:50.258Z,12.1
2023-08-20T22:48:50.288Z,11.8
2023-08-20T22:50:49.410Z,13.6
2023-08-20T22:52:49.498Z,11.6
2023-08-20T22:54:49.688Z,11.6
2023-08-20T22:56:49.670Z,12.7
2023-08-20T22:58:49.894Z,12.2
2023-08-20T23:00:50.104Z,13.2
2023-08-20T23:02:50.381Z,15.0
2023-08-20T23:04:49.680Z,13.3
2023-08-20T23:06:49.874Z,13.3
2023-08-20T23:08:49.901Z,12.6
2023-08-20T23:10:49.889Z,13.0
2023-08-20T23:12:49.938Z,15.3
2023-08-20T23:14:50.161Z,14.6
2023-08-20T23:16:50.332Z,14.6
2023-08-20T23:18:49.474Z,15.0
2023-08-20T23:20:49.484Z,13.4
2023-08-20T23:22:49.418Z,12.9
2023-08-20T23:24:49.468Z,12.9
2023-08-20T23:26:49.482Z,14.1
2023-08-20T23:28:49.456Z,14.1
2023-08-20T23:30:49.592Z,16.2
2023-08-20T23:32:49.752Z,15.3
2023-08-20T23:34:49.902Z,15.3
2023-08-20T23:36:50.035Z,12.7
2023-08-20T23:38:50.211Z,13.5
2023-08-20T23:40:50.303Z,13.6
2023-08-20T23:42:50.311Z,13.1
2023-08-20T23:44:49.386Z,13.1
2023-08-20T23:46:49.634Z,12.3
2023-08-20T23:48:49.760Z,12.3
2023-08-20T23:50:49.820Z,12.0
2023-08-20T23:52:49.856Z,12.3
2023-08-20T23:54:49.934Z,14.3
2023-08-20T23:56:50.559Z,14.3
2023-08-20T23:58:50.164Z,13.2
